sensor_id;sensor_type;location;lat;lon;timestamp;P1;durP1;ratioP1;P2;durP2;ratioP2
38312;SDS011;24114;52.260;6.714;2022-07-24T00:00:28;3.08;;;2.88;;
38312;SDS011;24114;52.260;6.714;2022-07-24T00:02:56;3.33;;;3.03;;
38312;SDS011;24114;52.260;6.714;2022-07-24T00:05:24;3.45;;;2.75;;
38312;SDS011;24114;52.260;6.714;2022-07-24T00:07:51;3.83;;;3.10;;
38312;SDS011;24114;52.260;6.714;2022-07-24T00:10:21;3.55;;;2.95;;
38312;SDS011;24114;52.260;6.714;2022-07-24T00:12:48;3.10;;;2.90;;
38312;SDS011;24114;52.260;6.714;2022-07-24T00:15:16;3.30;;;3.10;;
38312;SDS011;24114;52.260;6.714;2022-07-24T00:17:45;3.83;;;3.40;;
38312;SDS011;24114;52.260;6.714;2022-07-24T00:20:13;3.13;;;2.90;;
38312;SDS011;24114;52.260;6.714;2022-07-24T00:22:41;3.38;;;3.17;;
38312;SDS011;24114;52.260;6.714;2022-07-24T00:25:08;3.25;;;3.00;;
38312;SDS011;24114;52.260;6.714;2022-07-24T00:27:37;3.42;;;3.13;;
38312;SDS011;24114;52.260;6.714;2022-07-24T00:30:06;3.57;;;3.20;;
38312;SDS011;24114;52.260;6.714;2022-07-24T00:32:34;3.08;;;2.88;;
38312;SDS011;24114;52.260;6.714;2022-07-24T00:35:02;3.03;;;2.83;;
38312;SDS011;24114;52.260;6.714;2022-07-24T00:37:31;3.80;;;3.40;;
38312;SDS011;24114;52.260;6.714;2022-07-24T00:39:59;3.50;;;3.20;;
38312;SDS011;24114;52.260;6.714;2022-07-24T00:42:26;3.53;;;3.22;;
38312;SDS011;24114;52.260;6.714;2022-07-24T00:44:55;3.60;;;3.30;;
38312;SDS011;24114;52.260;6.714;2022-07-24T00:47:23;3.28;;;3.08;;
38312;SDS011;24114;52.260;6.714;2022-07-24T00:49:51;3.42;;;3.13;;
38312;SDS011;24114;52.260;6.714;2022-07-24T00:52:19;3.28;;;3.08;;
38312;SDS011;24114;52.260;6.714;2022-07-24T00:54:46;3.42;;;3.13;;
38312;SDS011;24114;52.260;6.714;2022-07-24T00:57:14;3.78;;;3.47;;
38312;SDS011;24114;52.260;6.714;2022-07-24T00:59:42;3.25;;;2.80;;
38312;SDS011;24114;52.260;6.714;2022-07-24T01:02:11;3.08;;;2.83;;
38312;SDS011;24114;52.260;6.714;2022-07-24T01:04:39;3.25;;;3.05;;
38312;SDS011;24114;52.260;6.714;2022-07-24T01:07:13;3.10;;;2.90;;
38312;SDS011;24114;52.260;6.714;2022-07-24T01:09:41;3.42;;;3.20;;
38312;SDS011;24114;52.260;6.714;2022-07-24T01:12:09;3.30;;;3.10;;
38312;SDS011;24114;52.260;6.714;2022-07-24T01:14:36;3.03;;;2.80;;
38312;SDS011;24114;52.260;6.714;2022-07-24T01:17:05;3.85;;;2.90;;
38312;SDS011;24114;52.260;6.714;2022-07-24T01:19:34;3.80;;;2.80;;
38312;SDS011;24114;52.260;6.714;2022-07-24T01:22:03;3.45;;;3.15;;
38312;SDS011;24114;52.260;6.714;2022-07-24T01:24:31;2.75;;;2.60;;
38312;SDS011;24114;52.260;6.714;2022-07-24T01:26:59;2.90;;;2.70;;
38312;SDS011;24114;52.260;6.714;2022-07-24T01:29:27;3.22;;;3.00;;
38312;SDS011;24114;52.260;6.714;2022-07-24T01:31:54;3.10;;;2.90;;
38312;SDS011;24114;52.260;6.714;2022-07-24T01:34:22;3.35;;;3.15;;
38312;SDS011;24114;52.260;6.714;2022-07-24T01:36:50;3.43;;;3.00;;
38312;SDS011;24114;52.260;6.714;2022-07-24T01:39:19;3.22;;;2.92;;
38312;SDS011;24114;52.260;6.714;2022-07-24T01:41:47;3.30;;;3.10;;
38312;SDS011;24114;52.260;6.714;2022-07-24T01:44:15;3.22;;;2.92;;
38312;SDS011;24114;52.260;6.714;2022-07-24T01:46:43;3.28;;;2.97;;
38312;SDS011;24114;52.260;6.714;2022-07-24T01:49:11;4.15;;;3.08;;
38312;SDS011;24114;52.260;6.714;2022-07-24T01:51:39;3.30;;;3.10;;
38312;SDS011;24114;52.260;6.714;2022-07-24T01:54:07;3.90;;;2.87;;
38312;SDS011;24114;52.260;6.714;2022-07-24T01:56:36;3.30;;;3.10;;
38312;SDS011;24114;52.260;6.714;2022-07-24T01:59:04;3.15;;;2.92;;
38312;SDS011;24114;52.260;6.714;2022-07-24T02:01:35;3.10;;;2.90;;
38312;SDS011;24114;52.260;6.714;2022-07-24T02:04:03;2.92;;;2.70;;
38312;SDS011;24114;52.260;6.714;2022-07-24T02:06:31;3.17;;;2.97;;
38312;SDS011;24114;52.260;6.714;2022-07-24T02:08:59;2.97;;;2.73;;
38312;SDS011;24114;52.260;6.714;2022-07-24T02:11:28;3.20;;;3.00;;
38312;SDS011;24114;52.260;6.714;2022-07-24T02:13:57;3.05;;;2.85;;
38312;SDS011;24114;52.260;6.714;2022-07-24T02:16:26;3.15;;;2.85;;
38312;SDS011;24114;52.260;6.714;2022-07-24T02:18:54;3.13;;;2.92;;
38312;SDS011;24114;52.260;6.714;2022-07-24T02:21:22;3.15;;;2.95;;
38312;SDS011;24114;52.260;6.714;2022-07-24T02:23:49;3.17;;;2.97;;
38312;SDS011;24114;52.260;6.714;2022-07-24T02:26:17;2.80;;;2.60;;
38312;SDS011;24114;52.260;6.714;2022-07-24T02:28:45;3.70;;;2.83;;
38312;SDS011;24114;52.260;6.714;2022-07-24T02:31:14;3.33;;;3.13;;
38312;SDS011;24114;52.260;6.714;2022-07-24T02:33:42;3.13;;;2.83;;
38312;SDS011;24114;52.260;6.714;2022-07-24T02:36:10;3.33;;;3.03;;
38312;SDS011;24114;52.260;6.714;2022-07-24T02:38:38;3.15;;;2.95;;
38312;SDS011;24114;52.260;6.714;2022-07-24T02:41:06;3.88;;;3.45;;
38312;SDS011;24114;52.260;6.714;2022-07-24T02:43:35;3.03;;;2.83;;
38312;SDS011;24114;52.260;6.714;2022-07-24T02:46:02;3.55;;;3.28;;
38312;SDS011;24114;52.260;6.714;2022-07-24T02:48:32;3.40;;;3.20;;
38312;SDS011;24114;52.260;6.714;2022-07-24T02:51:00;3.70;;;3.40;;
38312;SDS011;24114;52.260;6.714;2022-07-24T02:53:28;3.53;;;3.13;;
38312;SDS011;24114;52.260;6.714;2022-07-24T02:55:55;3.50;;;3.30;;
38312;SDS011;24114;52.260;6.714;2022-07-24T02:58:23;3.55;;;3.25;;
38312;SDS011;24114;52.260;6.714;2022-07-24T03:00:51;3.70;;;3.40;;
38312;SDS011;24114;52.260;6.714;2022-07-24T03:03:19;3.50;;;3.23;;
38312;SDS011;24114;52.260;6.714;2022-07-24T03:05:48;4.15;;;3.25;;
38312;SDS011;24114;52.260;6.714;2022-07-24T03:08:16;3.50;;;3.20;;
38312;SDS011;24114;52.260;6.714;2022-07-24T03:10:44;3.87;;;3.47;;
38312;SDS011;24114;52.260;6.714;2022-07-24T03:13:12;3.60;;;3.30;;
38312;SDS011;24114;52.260;6.714;2022-07-24T03:15:40;3.90;;;3.60;;
38312;SDS011;24114;52.260;6.714;2022-07-24T03:18:07;4.20;;;3.55;;
38312;SDS011;24114;52.260;6.714;2022-07-24T03:20:46;3.28;;;3.08;;
38312;SDS011;24114;52.260;6.714;2022-07-24T03:23:15;3.70;;;3.40;;
38312;SDS011;24114;52.260;6.714;2022-07-24T03:25:43;3.80;;;3.50;;
38312;SDS011;24114;52.260;6.714;2022-07-24T03:28:11;3.95;;;3.70;;
38312;SDS011;24114;52.260;6.714;2022-07-24T03:30:39;3.60;;;3.30;;
38312;SDS011;24114;52.260;6.714;2022-07-24T03:33:07;3.95;;;3.63;;
38312;SDS011;24114;52.260;6.714;2022-07-24T03:35:34;3.83;;;3.53;;
38312;SDS011;24114;52.260;6.714;2022-07-24T03:38:03;3.75;;;3.55;;
38312;SDS011;24114;52.260;6.714;2022-07-24T03:40:32;3.80;;;3.50;;
38312;SDS011;24114;52.260;6.714;2022-07-24T03:43:00;3.92;;;3.63;;
38312;SDS011;24114;52.260;6.714;2022-07-24T03:45:28;3.60;;;3.40;;
38312;SDS011;24114;52.260;6.714;2022-07-24T03:47:56;4.10;;;3.80;;
38312;SDS011;24114;52.260;6.714;2022-07-24T03:50:23;4.13;;;3.83;;
38312;SDS011;24114;52.260;6.714;2022-07-24T03:52:51;4.18;;;3.78;;
38312;SDS011;24114;52.260;6.714;2022-07-24T03:55:19;3.80;;;3.50;;
38312;SDS011;24114;52.260;6.714;2022-07-24T03:57:48;4.07;;;3.67;;
38312;SDS011;24114;52.260;6.714;2022-07-24T04:00:16;4.10;;;3.70;;
38312;SDS011;24114;52.260;6.714;2022-07-24T04:02:44;4.10;;;3.75;;
38312;SDS011;24114;52.260;6.714;2022-07-24T04:05:15;3.72;;;3.42;;
38312;SDS011;24114;52.260;6.714;2022-07-24T04:07:42;3.83;;;3.53;;
38312;SDS011;24114;52.260;6.714;2022-07-24T04:10:10;4.10;;;3.80;;
38312;SDS011;24114;52.260;6.714;2022-07-24T04:12:38;3.87;;;3.67;;
38312;SDS011;24114;52.260;6.714;2022-07-24T04:15:07;4.03;;;3.72;;
38312;SDS011;24114;52.260;6.714;2022-07-24T04:17:37;3.85;;;3.55;;
38312;SDS011;24114;52.260;6.714;2022-07-24T04:20:05;4.03;;;3.70;;
38312;SDS011;24114;52.260;6.714;2022-07-24T04:22:34;4.93;;;3.90;;
38312;SDS011;24114;52.260;6.714;2022-07-24T04:25:05;4.50;;;4.10;;
38312;SDS011;24114;52.260;6.714;2022-07-24T04:27:33;4.30;;;4.00;;
38312;SDS011;24114;52.260;6.714;2022-07-24T04:30:01;4.35;;;3.95;;
38312;SDS011;24114;52.260;6.714;2022-07-24T04:32:30;4.38;;;4.05;;
38312;SDS011;24114;52.260;6.714;2022-07-24T04:34:58;4.60;;;4.27;;
38312;SDS011;24114;52.260;6.714;2022-07-24T04:37:26;4.32;;;3.92;;
38312;SDS011;24114;52.260;6.714;2022-07-24T04:39:54;4.20;;;3.90;;
38312;SDS011;24114;52.260;6.714;2022-07-24T04:42:22;4.75;;;4.35;;
38312;SDS011;24114;52.260;6.714;2022-07-24T04:44:49;5.43;;;4.23;;
38312;SDS011;24114;52.260;6.714;2022-07-24T04:47:17;4.97;;;4.57;;
38312;SDS011;24114;52.260;6.714;2022-07-24T04:49:46;4.60;;;4.20;;
38312;SDS011;24114;52.260;6.714;2022-07-24T04:52:14;4.80;;;4.40;;
38312;SDS011;24114;52.260;6.714;2022-07-24T04:54:44;5.13;;;4.72;;
38312;SDS011;24114;52.260;6.714;2022-07-24T04:57:11;5.20;;;4.78;;
38312;SDS011;24114;52.260;6.714;2022-07-24T04:59:42;5.55;;;5.05;;
38312;SDS011;24114;52.260;6.714;2022-07-24T05:02:10;5.20;;;4.70;;
38312;SDS011;24114;52.260;6.714;2022-07-24T05:04:38;7.90;;;5.07;;
38312;SDS011;24114;52.260;6.714;2022-07-24T05:07:07;5.40;;;4.80;;
38312;SDS011;24114;52.260;6.714;2022-07-24T05:09:34;5.28;;;4.88;;
38312;SDS011;24114;52.260;6.714;2022-07-24T05:12:03;6.00;;;5.40;;
38312;SDS011;24114;52.260;6.714;2022-07-24T05:14:31;5.50;;;4.93;;
38312;SDS011;24114;52.260;6.714;2022-07-24T05:16:59;5.97;;;5.47;;
38312;SDS011;24114;52.260;6.714;2022-07-24T05:19:27;5.63;;;5.22;;
38312;SDS011;24114;52.260;6.714;2022-07-24T05:21:55;5.35;;;4.85;;
38312;SDS011;24114;52.260;6.714;2022-07-24T05:24:24;5.45;;;5.05;;
38312;SDS011;24114;52.260;6.714;2022-07-24T05:26:52;5.82;;;5.32;;
38312;SDS011;24114;52.260;6.714;2022-07-24T05:29:20;6.30;;;5.80;;
38312;SDS011;24114;52.260;6.714;2022-07-24T05:31:48;6.30;;;5.70;;
38312;SDS011;24114;52.260;6.714;2022-07-24T05:34:18;5.35;;;4.95;;
38312;SDS011;24114;52.260;6.714;2022-07-24T05:36:45;6.60;;;6.00;;
38312;SDS011;24114;52.260;6.714;2022-07-24T05:39:13;6.80;;;6.20;;
38312;SDS011;24114;52.260;6.714;2022-07-24T05:41:42;6.53;;;6.03;;
38312;SDS011;24114;52.260;6.714;2022-07-24T05:44:10;7.17;;;6.47;;
38312;SDS011;24114;52.260;6.714;2022-07-24T05:46:40;8.93;;;7.07;;
38312;SDS011;24114;52.260;6.714;2022-07-24T05:49:07;7.70;;;6.68;;
38312;SDS011;24114;52.260;6.714;2022-07-24T05:51:36;8.50;;;7.68;;
38312;SDS011;24114;52.260;6.714;2022-07-24T05:54:04;9.00;;;8.10;;
38312;SDS011;24114;52.260;6.714;2022-07-24T05:56:38;8.75;;;7.85;;
38312;SDS011;24114;52.260;6.714;2022-07-24T05:59:08;8.77;;;7.97;;
38312;SDS011;24114;52.260;6.714;2022-07-24T06:01:35;9.00;;;8.20;;
38312;SDS011;24114;52.260;6.714;2022-07-24T06:04:03;9.02;;;8.20;;
38312;SDS011;24114;52.260;6.714;2022-07-24T06:06:31;9.68;;;8.77;;
38312;SDS011;24114;52.260;6.714;2022-07-24T06:08:59;9.37;;;8.50;;
38312;SDS011;24114;52.260;6.714;2022-07-24T06:11:28;8.90;;;8.10;;
38312;SDS011;24114;52.260;6.714;2022-07-24T06:13:56;8.60;;;7.90;;
38312;SDS011;24114;52.260;6.714;2022-07-24T06:16:26;9.30;;;8.52;;
38312;SDS011;24114;52.260;6.714;2022-07-24T06:18:54;9.93;;;9.00;;
38312;SDS011;24114;52.260;6.714;2022-07-24T06:21:22;10.65;;;9.57;;
38312;SDS011;24114;52.260;6.714;2022-07-24T06:23:49;9.00;;;8.02;;
38312;SDS011;24114;52.260;6.714;2022-07-24T06:26:17;9.02;;;8.23;;
38312;SDS011;24114;52.260;6.714;2022-07-24T06:28:45;9.43;;;8.52;;
38312;SDS011;24114;52.260;6.714;2022-07-24T06:31:13;9.73;;;8.73;;
38312;SDS011;24114;52.260;6.714;2022-07-24T06:33:44;9.48;;;8.68;;
38312;SDS011;24114;52.260;6.714;2022-07-24T06:36:12;10.02;;;9.05;;
38312;SDS011;24114;52.260;6.714;2022-07-24T06:38:40;10.27;;;9.18;;
38312;SDS011;24114;52.260;6.714;2022-07-24T06:41:08;10.88;;;9.52;;
38312;SDS011;24114;52.260;6.714;2022-07-24T06:43:35;10.23;;;9.25;;
38312;SDS011;24114;52.260;6.714;2022-07-24T06:46:03;10.63;;;9.63;;
38312;SDS011;24114;52.260;6.714;2022-07-24T06:48:31;10.73;;;9.63;;
38312;SDS011;24114;52.260;6.714;2022-07-24T06:51:00;11.30;;;10.20;;
38312;SDS011;24114;52.260;6.714;2022-07-24T06:53:28;10.93;;;9.85;;
38312;SDS011;24114;52.260;6.714;2022-07-24T06:55:56;12.00;;;10.80;;
38312;SDS011;24114;52.260;6.714;2022-07-24T06:58:24;11.70;;;10.60;;
38312;SDS011;24114;52.260;6.714;2022-07-24T07:00:51;11.65;;;10.45;;
38312;SDS011;24114;52.260;6.714;2022-07-24T07:03:20;12.52;;;11.43;;
38312;SDS011;24114;52.260;6.714;2022-07-24T07:05:47;12.77;;;11.60;;
38312;SDS011;24114;52.260;6.714;2022-07-24T07:08:17;13.23;;;12.02;;
38312;SDS011;24114;52.260;6.714;2022-07-24T07:10:44;13.05;;;11.85;;
38312;SDS011;24114;52.260;6.714;2022-07-24T07:13:12;13.27;;;12.07;;
38312;SDS011;24114;52.260;6.714;2022-07-24T07:15:40;13.73;;;12.35;;
38312;SDS011;24114;52.260;6.714;2022-07-24T07:18:09;13.52;;;12.25;;
38312;SDS011;24114;52.260;6.714;2022-07-24T07:20:37;13.82;;;12.43;;
38312;SDS011;24114;52.260;6.714;2022-07-24T07:23:05;13.55;;;12.25;;
38312;SDS011;24114;52.260;6.714;2022-07-24T07:25:34;13.57;;;12.27;;
38312;SDS011;24114;52.260;6.714;2022-07-24T07:28:02;14.10;;;12.57;;
38312;SDS011;24114;52.260;6.714;2022-07-24T07:30:30;13.50;;;12.30;;
38312;SDS011;24114;52.260;6.714;2022-07-24T07:32:58;13.02;;;11.73;;
38312;SDS011;24114;52.260;6.714;2022-07-24T07:35:26;13.95;;;12.65;;
38312;SDS011;24114;52.260;6.714;2022-07-24T07:37:53;13.75;;;12.55;;
38312;SDS011;24114;52.260;6.714;2022-07-24T07:40:21;13.57;;;12.30;;
38312;SDS011;24114;52.260;6.714;2022-07-24T07:42:50;15.35;;;13.40;;
38312;SDS011;24114;52.260;6.714;2022-07-24T07:45:18;14.43;;;12.93;;
38312;SDS011;24114;52.260;6.714;2022-07-24T07:47:46;14.10;;;12.80;;
38312;SDS011;24114;52.260;6.714;2022-07-24T07:50:14;15.55;;;13.93;;
38312;SDS011;24114;52.260;6.714;2022-07-24T07:52:42;14.13;;;12.83;;
38312;SDS011;24114;52.260;6.714;2022-07-24T07:55:11;14.18;;;12.90;;
38312;SDS011;24114;52.260;6.714;2022-07-24T07:57:39;14.63;;;13.13;;
38312;SDS011;24114;52.260;6.714;2022-07-24T08:00:30;14.43;;;13.02;;
38312;SDS011;24114;52.260;6.714;2022-07-24T08:02:58;14.90;;;13.40;;
38312;SDS011;24114;52.260;6.714;2022-07-24T08:05:27;15.40;;;13.70;;
38312;SDS011;24114;52.260;6.714;2022-07-24T08:07:55;15.95;;;14.25;;
38312;SDS011;24114;52.260;6.714;2022-07-24T08:10:23;17.40;;;14.52;;
38312;SDS011;24114;52.260;6.714;2022-07-24T08:12:51;15.43;;;13.83;;
38312;SDS011;24114;52.260;6.714;2022-07-24T08:15:19;17.13;;;15.43;;
38312;SDS011;24114;52.260;6.714;2022-07-24T08:17:51;17.75;;;15.95;;
38312;SDS011;24114;52.260;6.714;2022-07-24T08:20:20;16.98;;;15.32;;
38312;SDS011;24114;52.260;6.714;2022-07-24T08:22:48;15.63;;;14.15;;
38312;SDS011;24114;52.260;6.714;2022-07-24T08:25:17;16.02;;;14.43;;
38312;SDS011;24114;52.260;6.714;2022-07-24T08:27:45;16.37;;;14.43;;
38312;SDS011;24114;52.260;6.714;2022-07-24T08:30:13;15.18;;;13.68;;
38312;SDS011;24114;52.260;6.714;2022-07-24T08:32:41;18.27;;;13.43;;
38312;SDS011;24114;52.260;6.714;2022-07-24T08:35:11;14.93;;;13.30;;
38312;SDS011;24114;52.260;6.714;2022-07-24T08:37:40;15.00;;;12.98;;
38312;SDS011;24114;52.260;6.714;2022-07-24T08:40:09;15.02;;;12.82;;
38312;SDS011;24114;52.260;6.714;2022-07-24T08:42:38;13.13;;;11.75;;
38312;SDS011;24114;52.260;6.714;2022-07-24T08:45:06;16.27;;;13.13;;
38312;SDS011;24114;52.260;6.714;2022-07-24T08:47:35;14.80;;;13.27;;
38312;SDS011;24114;52.260;6.714;2022-07-24T08:50:05;13.60;;;12.30;;
38312;SDS011;24114;52.260;6.714;2022-07-24T08:52:35;12.32;;;10.32;;
38312;SDS011;24114;52.260;6.714;2022-07-24T08:55:10;9.27;;;7.93;;
38312;SDS011;24114;52.260;6.714;2022-07-24T08:57:38;10.27;;;8.60;;
38312;SDS011;24114;52.260;6.714;2022-07-24T09:00:06;11.23;;;7.70;;
38312;SDS011;24114;52.260;6.714;2022-07-24T09:02:38;7.72;;;6.85;;
38312;SDS011;24114;52.260;6.714;2022-07-24T09:05:06;9.30;;;7.55;;
38312;SDS011;24114;52.260;6.714;2022-07-24T09:07:36;8.27;;;7.10;;
38312;SDS011;24114;52.260;6.714;2022-07-24T09:10:04;9.90;;;7.63;;
38312;SDS011;24114;52.260;6.714;2022-07-24T09:12:34;8.13;;;6.80;;
38312;SDS011;24114;52.260;6.714;2022-07-24T09:15:10;6.93;;;5.68;;
38312;SDS011;24114;52.260;6.714;2022-07-24T09:17:46;6.40;;;4.90;;
38312;SDS011;24114;52.260;6.714;2022-07-24T09:20:16;5.73;;;4.77;;
38312;SDS011;24114;52.260;6.714;2022-07-24T09:22:48;7.55;;;5.28;;
38312;SDS011;24114;52.260;6.714;2022-07-24T09:25:16;6.93;;;4.97;;
38312;SDS011;24114;52.260;6.714;2022-07-24T09:27:47;5.75;;;4.30;;
38312;SDS011;24114;52.260;6.714;2022-07-24T09:30:29;4.50;;;4.03;;
38312;SDS011;24114;52.260;6.714;2022-07-24T09:32:59;3.72;;;3.42;;
38312;SDS011;24114;52.260;6.714;2022-07-24T09:35:31;5.20;;;3.85;;
38312;SDS011;24114;52.260;6.714;2022-07-24T09:38:02;3.80;;;3.00;;
38312;SDS011;24114;52.260;6.714;2022-07-24T09:40:31;3.78;;;3.35;;
38312;SDS011;24114;52.260;6.714;2022-07-24T09:43:13;4.35;;;3.05;;
38312;SDS011;24114;52.260;6.714;2022-07-24T09:48:36;3.00;;;2.55;;
38312;SDS011;24114;52.260;6.714;2022-07-24T09:51:09;3.55;;;2.08;;
38312;SDS011;24114;52.260;6.714;2022-07-24T09:53:40;2.50;;;2.28;;
38312;SDS011;24114;52.260;6.714;2022-07-24T09:56:09;2.53;;;2.05;;
38312;SDS011;24114;52.260;6.714;2022-07-24T09:58:39;3.83;;;2.65;;
38312;SDS011;24114;52.260;6.714;2022-07-24T10:01:10;3.30;;;3.00;;
38312;SDS011;24114;52.260;6.714;2022-07-24T10:03:38;3.13;;;2.72;;
38312;SDS011;24114;52.260;6.714;2022-07-24T10:06:08;3.80;;;3.40;;
38312;SDS011;24114;52.260;6.714;2022-07-24T10:08:38;3.33;;;3.03;;
38312;SDS011;24114;52.260;6.714;2022-07-24T10:11:08;3.85;;;2.72;;
38312;SDS011;24114;52.260;6.714;2022-07-24T10:13:37;3.78;;;2.63;;
38312;SDS011;24114;52.260;6.714;2022-07-24T10:19:01;2.80;;;1.85;;
38312;SDS011;24114;52.260;6.714;2022-07-24T10:21:32;2.20;;;2.00;;
38312;SDS011;24114;52.260;6.714;2022-07-24T10:24:18;3.40;;;1.87;;
38312;SDS011;24114;52.260;6.714;2022-07-24T10:26:54;5.00;;;2.28;;
38312;SDS011;24114;52.260;6.714;2022-07-24T10:29:29;3.33;;;1.92;;
38312;SDS011;24114;52.260;6.714;2022-07-24T10:31:56;2.28;;;2.08;;
38312;SDS011;24114;52.260;6.714;2022-07-24T10:34:26;2.42;;;2.22;;
38312;SDS011;24114;52.260;6.714;2022-07-24T10:37:02;3.30;;;1.77;;
38312;SDS011;24114;52.260;6.714;2022-07-24T10:39:38;2.53;;;2.33;;
38312;SDS011;24114;52.260;6.714;2022-07-24T10:42:08;3.63;;;1.85;;
38312;SDS011;24114;52.260;6.714;2022-07-24T10:44:36;1.65;;;1.42;;
38312;SDS011;24114;52.260;6.714;2022-07-24T10:47:06;2.10;;;1.60;;
38312;SDS011;24114;52.260;6.714;2022-07-24T10:49:36;2.70;;;1.50;;
38312;SDS011;24114;52.260;6.714;2022-07-24T10:52:09;1.55;;;1.42;;
38312;SDS011;24114;52.260;6.714;2022-07-24T10:54:39;3.03;;;1.50;;
38312;SDS011;24114;52.260;6.714;2022-07-24T10:57:07;2.33;;;1.23;;
38312;SDS011;24114;52.260;6.714;2022-07-24T10:59:36;1.80;;;1.30;;
38312;SDS011;24114;52.260;6.714;2022-07-24T11:02:23;1.45;;;0.80;;
38312;SDS011;24114;52.260;6.714;2022-07-24T11:11:11;1.05;;;0.70;;
38312;SDS011;24114;52.260;6.714;2022-07-24T11:13:50;1.00;;;0.60;;
38312;SDS011;24114;52.260;6.714;2022-07-24T11:16:20;2.75;;;0.80;;
38312;SDS011;24114;52.260;6.714;2022-07-24T11:24:40;2.83;;;0.93;;
38312;SDS011;24114;52.260;6.714;2022-07-24T11:27:16;3.13;;;1.20;;
38312;SDS011;24114;52.260;6.714;2022-07-24T11:29:45;1.13;;;0.60;;
38312;SDS011;24114;52.260;6.714;2022-07-24T11:34:13;1.60;;;0.70;;
38312;SDS011;24114;52.260;6.714;2022-07-24T11:36:42;0.88;;;0.65;;
38312;SDS011;24114;52.260;6.714;2022-07-24T11:39:11;1.30;;;0.52;;
38312;SDS011;24114;52.260;6.714;2022-07-24T11:41:45;1.40;;;0.43;;
38312;SDS011;24114;52.260;6.714;2022-07-24T11:44:13;1.30;;;0.38;;
38312;SDS011;24114;52.260;6.714;2022-07-24T11:46:41;0.98;;;0.40;;
38312;SDS011;24114;52.260;6.714;2022-07-24T11:49:09;0.95;;;0.52;;
38312;SDS011;24114;52.260;6.714;2022-07-24T11:51:41;0.77;;;0.50;;
38312;SDS011;24114;52.260;6.714;2022-07-24T11:54:10;1.98;;;0.45;;
38312;SDS011;24114;52.260;6.714;2022-07-24T11:56:38;1.20;;;0.60;;
38312;SDS011;24114;52.260;6.714;2022-07-24T11:59:20;1.38;;;0.57;;
38312;SDS011;24114;52.260;6.714;2022-07-24T12:01:48;1.70;;;0.60;;
38312;SDS011;24114;52.260;6.714;2022-07-24T12:04:18;0.85;;;0.50;;
38312;SDS011;24114;52.260;6.714;2022-07-24T12:06:48;2.13;;;0.50;;
38312;SDS011;24114;52.260;6.714;2022-07-24T12:09:16;0.77;;;0.50;;
38312;SDS011;24114;52.260;6.714;2022-07-24T12:11:43;1.00;;;0.55;;
38312;SDS011;24114;52.260;6.714;2022-07-24T12:14:19;1.40;;;0.50;;
38312;SDS011;24114;52.260;6.714;2022-07-24T12:16:51;1.00;;;0.50;;
38312;SDS011;24114;52.260;6.714;2022-07-24T12:19:21;1.55;;;0.50;;
38312;SDS011;24114;52.260;6.714;2022-07-24T12:21:52;0.60;;;0.60;;
38312;SDS011;24114;52.260;6.714;2022-07-24T12:24:20;1.90;;;0.80;;
